Time;durP1;ratioP1;P1;durP2;ratioP2;P2;SDS_P1;SDS_P2;PMS_P1;PMS_P2;Temp;Humidity;BMP_temperature;BMP_pressure;BME280_temperature;BME280_humidity;BME280_pressure;Samples;Min_cycle;Max_cycle;Signal;HPM_P1;HPM_P2
2023/07/10 00:01:57;;;;;;;;;;;21.60;78.90;;;;;;5073498;28;20013;-32
2023/07/10 00:04:23;;;;;;;;;;;21.60;78.90;;;;;;5073482;28;20350;-39
2023/07/10 00:06:48;;;;;;;;;;;21.60;78.80;;;;;;5073442;28;19912;-32
2023/07/10 00:09:13;;;;;;;;;;;21.60;79.00;;;;;;5073687;28;20416;-31
2023/07/10 00:11:40;;;;;;;;;;;21.50;79.10;;;;;;5073587;28;19924;-29
2023/07/10 00:14:06;;;;;;;;;;;21.50;79.40;;;;;;5073529;28;20389;-32
2023/07/10 00:16:32;;;;;;;;;;;21.50;79.20;;;;;;5073629;28;19912;-31
2023/07/10 00:18:58;;;;;;;;;;;21.50;79.20;;;;;;5073136;28;20325;-36
2023/07/10 00:21:23;;;;;;;;;;;21.40;79.30;;;;;;5073226;28;20007;-30
2023/07/10 00:23:49;;;;;;;;;;;21.40;79.40;;;;;;5073332;28;19935;-35
2023/07/10 00:26:19;;;;;;;;;;;21.40;79.30;;;;;;5073167;28;19935;-33
2023/07/10 00:28:46;;;;;;;;;;;21.40;79.20;;;;;;5073165;28;19916;-32
2023/07/10 00:31:13;;;;;;;;;;;21.40;79.20;;;;;;5072944;28;20380;-33
2023/07/10 00:33:38;;;;;;;;;;;21.50;79.20;;;;;;5073205;28;19963;-33
2023/07/10 00:36:13;;;;;;;;;;;21.50;79.20;;;;;;5072995;28;20387;-35
2023/07/10 00:38:39;;;;;;;;;;;21.50;79.20;;;;;;5072825;28;19944;-36
2023/07/10 00:41:05;;;;;;;;;;;21.40;79.10;;;;;;5071496;28;20015;-33
2023/07/10 00:44:03;;;;;;;;;;;21.50;79.20;;;;;;5072932;28;20388;-37
2023/07/10 00:46:49;;;;;;;;;;;21.40;79.50;;;;;;5072296;28;19913;-36
2023/07/10 00:49:26;;;;;;;;;;;21.40;79.60;;;;;;5072237;28;19978;-34
2023/07/10 00:52:01;;;;;;;;;;;21.40;79.60;;;;;;5072596;28;20007;-34
2023/07/10 00:54:32;;;;;;;;;;;21.40;79.40;;;;;;5072914;28;19952;-33
2023/07/10 00:56:59;;;;;;;;;;;21.40;79.40;;;;;;5072586;28;19983;-30
2023/07/10 00:59:26;;;;;;;;;;;21.40;79.40;;;;;;5072521;28;19913;-34
2023/07/10 01:02:10;;;;;;;;;;;21.40;79.40;;;;;;5072808;28;20407;-32
2023/07/10 01:04:39;;;;;;;;;;;21.40;79.40;;;;;;5072422;28;19920;-32
2023/07/10 01:07:09;;;;;;;;;;;21.40;79.30;;;;;;5072757;28;20326;-30
2023/07/10 01:09:35;;;;;;;;;;;21.40;79.20;;;;;;5072391;28;20418;-31
2023/07/10 01:12:03;;;;;;;;;;;21.40;79.20;;;;;;5072319;28;19916;-29
2023/07/10 01:14:34;;;;;;;;;;;21.40;79.20;;;;;;5072480;28;19916;-36
2023/07/10 01:16:59;;;;;;;;;;;21.40;79.20;;;;;;5072483;28;19913;-30
2023/07/10 01:19:25;;;;;;;;;;;21.40;79.20;;;;;;5072308;28;19924;-34
2023/07/10 01:21:50;;;;;;;;;;;21.40;79.40;;;;;;5072231;28;20383;-32
2023/07/10 01:24:16;;;;;;;;;;;21.30;79.50;;;;;;5072439;28;19952;-29
2023/07/10 01:26:42;;;;;;;;;;;21.30;79.60;;;;;;5072161;28;19919;-31
2023/07/10 01:29:31;;;;;;;;;;;21.20;80.50;;;;;;5070711;28;20444;-33
2023/07/10 01:31:57;;;;;;;;;;;21.20;79.80;;;;;;5071561;28;19978;-30
2023/07/10 01:34:27;;;;;;;;;;;21.10;79.80;;;;;;5072021;28;19912;-32
2023/07/10 01:36:53;;;;;;;;;;;21.00;79.80;;;;;;5072071;28;20362;-30
2023/07/10 01:39:32;;;;;;;;;;;21.00;79.80;;;;;;5072278;28;19919;-35
2023/07/10 01:41:57;;;;;;;;;;;21.00;79.80;;;;;;5071899;28;20016;-32
2023/07/10 01:44:27;;;;;;;;;;;21.00;79.80;;;;;;5072032;28;20343;-32
2023/07/10 01:46:53;;;;;;;;;;;21.00;79.90;;;;;;5072117;28;19913;-29
2023/07/10 01:49:21;;;;;;;;;;;21.00;80.00;;;;;;5071911;28;20012;-31
2023/07/10 01:51:47;;;;;;;;;;;21.00;79.90;;;;;;5071855;28;19916;-35
2023/07/10 01:54:15;;;;;;;;;;;21.00;79.90;;;;;;5070469;28;19936;-30
2023/07/10 01:56:41;;;;;;;;;;;21.00;79.90;;;;;;5071858;28;19916;-34
2023/07/10 01:59:07;;;;;;;;;;;21.00;79.90;;;;;;5072843;28;19919;-31
2023/07/10 02:01:33;;;;;;;;;;;21.00;79.80;;;;;;5075861;28;19913;-39
2023/07/10 02:03:58;;;;;;;;;;;21.00;79.70;;;;;;5076078;28;19974;-34
2023/07/10 02:06:24;;;;;;;;;;;21.00;79.60;;;;;;5075934;28;20292;-33
2023/07/10 02:08:49;;;;;;;;;;;21.00;79.50;;;;;;5075774;28;19928;-34
2023/07/10 02:11:15;;;;;;;;;;;21.00;79.50;;;;;;5075666;28;19924;-37
2023/07/10 02:13:40;;;;;;;;;;;21.00;79.50;;;;;;5075651;28;19934;-33
2023/07/10 02:16:09;;;;;;;;;;;21.00;79.50;;;;;;5075650;28;19919;-38
2023/07/10 02:18:34;;;;;;;;;;;21.00;79.40;;;;;;5075817;28;19919;-30
2023/07/10 02:21:00;;;;;;;;;;;21.10;79.40;;;;;;5074314;28;20009;-31
2023/07/10 02:23:25;;;;;;;;;;;21.10;79.30;;;;;;5075578;28;19920;-33
2023/07/10 02:25:51;;;;;;;;;;;21.10;79.30;;;;;;5075763;28;19912;-33
2023/07/10 02:28:16;;;;;;;;;;;21.10;79.20;;;;;;5075470;28;19966;-35
2023/07/10 02:30:41;;;;;;;;;;;21.00;79.20;;;;;;5075152;28;19917;-35
2023/07/10 02:33:07;;;;;;;;;;;21.10;79.20;;;;;;5075347;28;19973;-29
2023/07/10 02:35:33;;;;;;;;;;;21.00;79.20;;;;;;5075477;28;19912;-30
2023/07/10 02:37:58;;;;;;;;;;;21.00;79.30;;;;;;5075449;28;19912;-32
2023/07/10 02:40:24;;;;;;;;;;;20.90;79.30;;;;;;5075105;28;19970;-32
2023/07/10 02:42:49;;;;;;;;;;;21.00;79.30;;;;;;5075206;28;19916;-32
2023/07/10 02:45:15;;;;;;;;;;;20.90;79.30;;;;;;5075105;28;20011;-34
2023/07/10 02:47:41;;;;;;;;;;;20.90;79.20;;;;;;5075373;28;19913;-32
2023/07/10 02:50:08;;;;;;;;;;;20.90;79.20;;;;;;5075215;28;20000;-33
2023/07/10 02:52:34;;;;;;;;;;;20.90;79.20;;;;;;5074841;28;20393;-30
2023/07/10 02:54:59;;;;;;;;;;;21.00;79.10;;;;;;5073589;28;19919;-29
2023/07/10 02:57:25;;;;;;;;;;;21.00;79.10;;;;;;5074868;28;20401;-34
2023/07/10 02:59:50;;;;;;;;;;;20.90;79.00;;;;;;5074879;28;20018;-32
2023/07/10 03:02:16;;;;;;;;;;;20.90;79.00;;;;;;5074801;28;19958;-30
2023/07/10 03:04:41;;;;;;;;;;;20.90;79.00;;;;;;5074691;28;19913;-29
2023/07/10 03:07:07;;;;;;;;;;;20.90;79.00;;;;;;5074665;28;19913;-30
2023/07/10 03:09:32;;;;;;;;;;;20.80;79.10;;;;;;5074860;28;19917;-30
2023/07/10 03:11:58;;;;;;;;;;;20.80;79.10;;;;;;5073468;28;19917;-37
2023/07/10 03:14:23;;;;;;;;;;;20.70;79.10;;;;;;5074806;28;19912;-31
2023/07/10 03:16:49;;;;;;;;;;;20.70;79.00;;;;;;5074457;28;20014;-30
2023/07/10 03:19:14;;;;;;;;;;;20.70;79.10;;;;;;5074530;28;19919;-33
2023/07/10 03:21:40;;;;;;;;;;;20.60;79.00;;;;;;5074556;28;20040;-30
2023/07/10 03:24:05;;;;;;;;;;;20.60;79.10;;;;;;5074353;28;20260;-30
2023/07/10 03:26:31;;;;;;;;;;;20.60;79.10;;;;;;5074601;28;20318;-32
2023/07/10 03:29:05;;;;;;;;;;;20.60;79.00;;;;;;5074499;28;20387;-30
2023/07/10 03:31:31;;;;;;;;;;;20.70;78.90;;;;;;5074418;28;19920;-35
2023/07/10 03:33:56;;;;;;;;;;;20.60;78.80;;;;;;5074246;28;19948;-31
2023/07/10 03:36:22;;;;;;;;;;;20.60;78.70;;;;;;5074276;28;19997;-34
2023/07/10 03:38:47;;;;;;;;;;;20.60;78.70;;;;;;5074412;28;19912;-37
2023/07/10 03:41:13;;;;;;;;;;;20.70;78.70;;;;;;5074296;28;20049;-32
2023/07/10 03:43:38;;;;;;;;;;;20.60;78.60;;;;;;5074245;28;19913;-30
2023/07/10 03:46:04;;;;;;;;;;;20.60;78.40;;;;;;5074298;28;19920;-31
2023/07/10 03:48:29;;;;;;;;;;;20.70;78.50;;;;;;5074312;28;20000;-35
2023/07/10 03:50:55;;;;;;;;;;;20.70;78.40;;;;;;5073826;28;19913;-30
2023/07/10 03:53:20;;;;;;;;;;;20.60;78.40;;;;;;5073906;28;19912;-35
2023/07/10 03:55:49;;;;;;;;;;;20.60;78.40;;;;;;5073732;28;19935;-35
2023/07/10 03:58:21;;;;;;;;;;;20.50;78.40;;;;;;5074107;28;20354;-33
2023/07/10 04:00:47;;;;;;;;;;;20.50;78.40;;;;;;5072323;28;19913;-36
2023/07/10 04:03:12;;;;;;;;;;;20.60;78.40;;;;;;5073952;28;19923;-34
2023/07/10 04:05:38;;;;;;;;;;;20.60;78.30;;;;;;5073521;28;19912;-32
2023/07/10 04:08:03;;;;;;;;;;;20.60;78.20;;;;;;5073730;28;19949;-30
2023/07/10 04:10:29;;;;;;;;;;;20.60;78.20;;;;;;5073706;28;20002;-38
2023/07/10 04:12:54;;;;;;;;;;;20.50;78.10;;;;;;5073479;28;20000;-37
2023/07/10 04:15:20;;;;;;;;;;;20.50;78.10;;;;;;5073355;28;20418;-37
2023/07/10 04:17:45;;;;;;;;;;;20.60;78.10;;;;;;5073624;28;19968;-36
2023/07/10 04:20:11;;;;;;;;;;;20.50;78.00;;;;;;5073310;28;19913;-31
2023/07/10 04:22:36;;;;;;;;;;;20.50;78.00;;;;;;5072993;28;19913;-32
2023/07/10 04:25:05;;;;;;;;;;;20.50;78.00;;;;;;5073273;28;19912;-33
2023/07/10 04:27:31;;;;;;;;;;;20.50;77.90;;;;;;5073217;28;19919;-30
2023/07/10 04:29:57;;;;;;;;;;;20.50;77.90;;;;;;5072910;28;19962;-36
2023/07/10 04:32:22;;;;;;;;;;;20.50;77.80;;;;;;5073118;28;19954;-29
2023/07/10 04:34:48;;;;;;;;;;;20.50;77.80;;;;;;5072969;28;19916;-31
2023/07/10 04:37:13;;;;;;;;;;;20.50;77.70;;;;;;5073094;28;19965;-33
2023/07/10 04:39:39;;;;;;;;;;;20.50;77.60;;;;;;5073144;28;20003;-32
2023/07/10 04:42:05;;;;;;;;;;;20.50;77.50;;;;;;5072880;28;19920;-29
2023/07/10 04:44:30;;;;;;;;;;;20.40;77.40;;;;;;5072647;28;19986;-34
2023/07/10 04:46:56;;;;;;;;;;;20.40;77.40;;;;;;5072831;28;19913;-31
2023/07/10 04:49:21;;;;;;;;;;;20.40;77.30;;;;;;5072753;28;19912;-30
2023/07/10 04:51:47;;;;;;;;;;;20.40;77.30;;;;;;5072911;28;19916;-30
2023/07/10 04:54:12;;;;;;;;;;;20.40;77.20;;;;;;5072900;28;19912;-30
2023/07/10 04:56:38;;;;;;;;;;;20.40;77.10;;;;;;5071315;28;19912;-32
2023/07/10 04:59:03;;;;;;;;;;;20.40;77.10;;;;;;5072680;28;19919;-30
2023/07/10 05:01:32;;;;;;;;;;;20.40;77.10;;;;;;5072376;28;19919;-34
2023/07/10 05:03:58;;;;;;;;;;;20.50;77.00;;;;;;5072728;28;19968;-31
2023/07/10 05:06:23;;;;;;;;;;;20.50;76.90;;;;;;5072773;28;19961;-35
2023/07/10 05:08:51;;;;;;;;;;;20.50;76.90;;;;;;5072665;28;20224;-30
2023/07/10 05:11:16;;;;;;;;;;;20.50;76.80;;;;;;5072588;28;19920;-33
2023/07/10 05:13:42;;;;;;;;;;;20.50;76.80;;;;;;5072560;28;19912;-34
2023/07/10 05:16:07;;;;;;;;;;;20.50;76.70;;;;;;5071057;28;19912;-33
2023/07/10 05:18:33;;;;;;;;;;;20.40;76.70;;;;;;5072305;28;19955;-35
2023/07/10 05:20:59;;;;;;;;;;;20.40;76.80;;;;;;5072309;28;19947;-31
2023/07/10 05:23:25;;;;;;;;;;;20.40;76.90;;;;;;5072122;28;19914;-32
2023/07/10 05:25:58;;;;;;;;;;;20.40;76.90;;;;;;5072427;28;19912;-32
2023/07/10 05:28:24;;;;;;;;;;;20.30;76.90;;;;;;5072082;28;19954;-40
2023/07/10 05:30:49;;;;;;;;;;;20.30;76.90;;;;;;5071860;28;19920;-36
2023/07/10 05:33:15;;;;;;;;;;;20.20;76.90;;;;;;5071862;28;19912;-31
2023/07/10 05:35:51;;;;;;;;;;;20.20;76.90;;;;;;5071982;28;19908;-29
2023/07/10 05:38:16;;;;;;;;;;;20.20;76.90;;;;;;5072489;28;19908;-33
2023/07/10 05:40:42;;;;;;;;;;;20.10;76.90;;;;;;5071949;28;19908;-32
2023/07/10 05:43:07;;;;;;;;;;;20.10;76.90;;;;;;5072123;28;19909;-33
2023/07/10 05:45:33;;;;;;;;;;;20.10;76.90;;;;;;5071959;28;19974;-33
2023/07/10 05:47:58;;;;;;;;;;;20.10;76.90;;;;;;5072055;28;19909;-32
2023/07/10 05:50:24;;;;;;;;;;;20.10;76.80;;;;;;5070855;28;19920;-30
2023/07/10 05:52:49;;;;;;;;;;;20.10;76.70;;;;;;5071865;28;20417;-30
2023/07/10 05:55:15;;;;;;;;;;;20.10;76.70;;;;;;5071902;28;20114;-30
2023/07/10 05:57:40;;;;;;;;;;;20.10;76.70;;;;;;5071998;28;19931;-30
2023/07/10 06:00:06;;;;;;;;;;;20.10;76.70;;;;;;5071793;28;19908;-30
2023/07/10 06:02:31;;;;;;;;;;;20.10;76.60;;;;;;5070541;28;19995;-37
2023/07/10 06:04:57;;;;;;;;;;;20.20;76.60;;;;;;5071756;28;19909;-30
2023/07/10 06:07:22;;;;;;;;;;;20.20;76.40;;;;;;5072072;28;19912;-34
2023/07/10 06:09:48;;;;;;;;;;;20.30;76.30;;;;;;5072024;28;19915;-36
2023/07/10 06:12:13;;;;;;;;;;;20.30;76.20;;;;;;5071603;28;20383;-40
2023/07/10 06:14:39;;;;;;;;;;;20.40;76.20;;;;;;5071698;28;19916;-30
2023/07/10 06:17:04;;;;;;;;;;;20.40;76.20;;;;;;5072068;28;19994;-32
2023/07/10 06:19:30;;;;;;;;;;;20.40;76.10;;;;;;5071868;28;19912;-32
2023/07/10 06:22:06;;;;;;;;;;;20.40;76.10;;;;;;5071784;28;20397;-33
2023/07/10 06:24:31;;;;;;;;;;;20.40;76.00;;;;;;5071669;28;19908;-34
2023/07/10 06:26:57;;;;;;;;;;;20.40;75.80;;;;;;5071663;28;19916;-31
2023/07/10 06:29:22;;;;;;;;;;;20.50;75.70;;;;;;5071450;28;19919;-33
2023/07/10 06:31:47;;;;;;;;;;;20.50;75.70;;;;;;5071784;28;19966;-34
2023/07/10 06:34:13;;;;;;;;;;;20.50;75.40;;;;;;5071934;28;19931;-30
2023/07/10 06:36:38;;;;;;;;;;;20.60;75.40;;;;;;5071396;28;19966;-31
2023/07/10 06:39:04;;;;;;;;;;;20.60;75.20;;;;;;5071522;28;20368;-32
2023/07/10 06:41:30;;;;;;;;;;;20.60;75.00;;;;;;5071334;28;19909;-30
2023/07/10 06:43:56;;;;;;;;;;;20.70;74.80;;;;;;5071441;28;19908;-30
2023/07/10 06:46:22;;;;;;;;;;;20.70;74.80;;;;;;5072960;28;19908;-31
2023/07/10 06:48:47;;;;;;;;;;;20.70;74.70;;;;;;5075214;28;19958;-34
2023/07/10 06:51:13;;;;;;;;;;;20.80;74.50;;;;;;5075250;28;19948;-36
2023/07/10 06:53:38;;;;;;;;;;;20.80;74.40;;;;;;5074964;28;19958;-30
2023/07/10 06:56:05;;;;;;;;;;;20.80;74.30;;;;;;5075265;28;19936;-30
2023/07/10 06:58:32;;;;;;;;;;;20.90;74.20;;;;;;5074872;28;19959;-32
2023/07/10 07:00:57;;;;;;;;;;;20.90;74.00;;;;;;5075117;28;19920;-29
2023/07/10 07:03:23;;;;;;;;;;;20.90;73.70;;;;;;5075131;28;20486;-36
2023/07/10 07:05:49;;;;;;;;;;;21.00;73.60;;;;;;5073458;28;19916;-32
2023/07/10 07:08:17;;;;;;;;;;;21.00;73.50;;;;;;5074811;28;20373;-32
2023/07/10 07:10:43;;;;;;;;;;;21.10;73.20;;;;;;5075271;28;20375;-31
2023/07/10 07:13:09;;;;;;;;;;;21.10;72.50;;;;;;5074707;28;19912;-32
2023/07/10 07:15:34;;;;;;;;;;;21.10;72.20;;;;;;5074718;28;20497;-34
2023/07/10 07:18:00;;;;;;;;;;;21.10;72.20;;;;;;5074874;28;19909;-31
2023/07/10 07:20:25;;;;;;;;;;;21.20;72.10;;;;;;5074531;28;19913;-31
2023/07/10 07:22:51;;;;;;;;;;;21.20;72.00;;;;;;5074745;28;20018;-30
2023/07/10 07:25:18;;;;;;;;;;;21.20;71.90;;;;;;5074461;28;19908;-41
2023/07/10 07:27:43;;;;;;;;;;;21.30;71.80;;;;;;5074423;28;19915;-33
2023/07/10 07:30:09;;;;;;;;;;;21.30;71.70;;;;;;5074315;28;19920;-37
2023/07/10 07:32:34;;;;;;;;;;;21.40;71.70;;;;;;5074475;28;20366;-34
2023/07/10 07:35:00;;;;;;;;;;;21.40;71.50;;;;;;5074609;28;20390;-32
2023/07/10 07:37:25;;;;;;;;;;;21.50;71.50;;;;;;5074234;28;20015;-31
2023/07/10 07:39:51;;;;;;;;;;;21.60;71.30;;;;;;5074160;28;19908;-32
2023/07/10 07:42:16;;;;;;;;;;;21.60;70.80;;;;;;5074045;28;19908;-30
2023/07/10 07:44:42;;;;;;;;;;;21.60;70.70;;;;;;5073962;28;19915;-30
2023/07/10 07:47:07;;;;;;;;;;;21.60;70.50;;;;;;5074006;28;20379;-30
2023/07/10 07:49:33;;;;;;;;;;;21.70;70.60;;;;;;5074255;28;19909;-30
2023/07/10 07:51:59;;;;;;;;;;;21.60;70.50;;;;;;5074029;28;19920;-32
2023/07/10 07:54:24;;;;;;;;;;;21.70;70.30;;;;;;5073846;28;19908;-30
2023/07/10 07:56:50;;;;;;;;;;;21.70;70.20;;;;;;5073148;28;19912;-29
2023/07/10 07:59:18;;;;;;;;;;;21.70;70.10;;;;;;5072549;28;19919;-30
2023/07/10 08:01:43;;;;;;;;;;;21.70;70.20;;;;;;5073731;28;19909;-31
2023/07/10 08:04:09;;;;;;;;;;;21.70;70.10;;;;;;5073609;28;20003;-31
2023/07/10 08:06:34;;;;;;;;;;;21.80;70.00;;;;;;5073583;28;19939;-38
2023/07/10 08:09:00;;;;;;;;;;;21.80;70.10;;;;;;5073861;28;20284;-36
2023/07/10 08:11:25;;;;;;;;;;;21.90;70.10;;;;;;5072185;28;20372;-33
2023/07/10 08:13:51;;;;;;;;;;;21.90;69.90;;;;;;5073430;28;20318;-33
2023/07/10 08:16:18;;;;;;;;;;;21.90;69.90;;;;;;5073513;28;19915;-30
2023/07/10 08:18:43;;;;;;;;;;;22.00;70.00;;;;;;5073317;28;19912;-38
2023/07/10 08:21:10;;;;;;;;;;;22.00;70.00;;;;;;5073453;28;20025;-31
2023/07/10 08:23:36;;;;;;;;;;;22.00;69.90;;;;;;5073183;28;19936;-30
2023/07/10 08:26:02;;;;;;;;;;;22.10;70.00;;;;;;5073400;28;19909;-31
2023/07/10 08:28:27;;;;;;;;;;;22.10;69.60;;;;;;5073436;28;20261;-35
2023/07/10 08:30:53;;;;;;;;;;;22.20;69.80;;;;;;5072939;28;20007;-31
2023/07/10 08:33:19;;;;;;;;;;;22.20;69.50;;;;;;5073178;28;19917;-30
2023/07/10 08:35:52;;;;;;;;;;;22.20;69.50;;;;;;5073237;28;19932;-31
2023/07/10 08:38:17;;;;;;;;;;;22.20;69.40;;;;;;5072939;28;20287;-31
2023/07/10 08:40:43;;;;;;;;;;;22.30;69.40;;;;;;5072922;28;19915;-32
2023/07/10 08:43:18;;;;;;;;;;;22.30;69.20;;;;;;5073130;28;19908;-29
2023/07/10 08:45:45;;;;;;;;;;;22.30;69.30;;;;;;5073028;28;20380;-35
2023/07/10 08:48:16;;;;;;;;;;;22.40;68.90;;;;;;5072896;28;20291;-34
2023/07/10 08:50:42;;;;;;;;;;;22.40;68.80;;;;;;5072675;28;19908;-33
2023/07/10 08:53:16;;;;;;;;;;;22.40;68.50;;;;;;5072649;28;19913;-35
2023/07/10 08:55:41;;;;;;;;;;;22.50;68.60;;;;;;5072588;28;20427;-37
2023/07/10 08:58:14;;;;;;;;;;;22.60;68.60;;;;;;5072696;28;19913;-43
2023/07/10 09:00:42;;;;;;;;;;;22.60;68.60;;;;;;5072401;28;19935;-40
2023/07/10 09:03:26;;;;;;;;;;;22.70;68.40;;;;;;5072740;28;19908;-32
2023/07/10 09:05:52;;;;;;;;;;;22.80;68.40;;;;;;5072662;28;19967;-30
2023/07/10 09:08:19;;;;;;;;;;;22.90;68.20;;;;;;5071817;28;19909;-34
2023/07/10 09:10:49;;;;;;;;;;;22.90;68.20;;;;;;5072379;28;19909;-32
2023/07/10 09:13:25;;;;;;;;;;;22.90;68.10;;;;;;5072316;28;20011;-30
2023/07/10 09:15:50;;;;;;;;;;;23.00;67.50;;;;;;5070941;28;20023;-31
2023/07/10 09:18:29;;;;;;;;;;;23.10;66.10;;;;;;5072511;28;19951;-30
2023/07/10 09:20:57;;;;;;;;;;;23.10;66.10;;;;;;5072546;28;20253;-30
2023/07/10 09:23:29;;;;;;;;;;;23.10;66.10;;;;;;5072087;28;19916;-33
2023/07/10 09:25:57;;;;;;;;;;;23.20;66.00;;;;;;5072356;28;20337;-30
2023/07/10 09:28:23;;;;;;;;;;;23.30;66.00;;;;;;5072108;28;19987;-32
2023/07/10 09:31:07;;;;;;;;;;;23.30;65.40;;;;;;5071924;28;20248;-33
2023/07/10 09:33:37;;;;;;;;;;;23.40;65.90;;;;;;5072244;28;19921;-30
2023/07/10 09:36:11;;;;;;;;;;;23.40;65.40;;;;;;5072038;28;19909;-28
2023/07/10 09:38:36;;;;;;;;;;;23.40;65.50;;;;;;5072302;28;19919;-30
2023/07/10 09:41:09;;;;;;;;;;;23.40;65.40;;;;;;5071893;28;19908;-30
2023/07/10 09:43:36;;;;;;;;;;;23.50;65.10;;;;;;5072124;28;19916;-34
2023/07/10 09:46:02;;;;;;;;;;;23.50;64.90;;;;;;5072228;28;20398;-32
2023/07/10 09:48:33;;;;;;;;;;;23.60;65.00;;;;;;5071871;28;19908;-34
2023/07/10 09:51:03;;;;;;;;;;;23.70;64.90;;;;;;5071822;28;19908;-34
2023/07/10 09:53:34;;;;;;;;;;;23.70;64.00;;;;;;5071768;28;20090;-33
2023/07/10 09:56:00;;;;;;;;;;;23.80;64.20;;;;;;5071835;28;20000;-33
2023/07/10 09:58:25;;;;;;;;;;;23.80;64.10;;;;;;5072073;28;19998;-33
2023/07/10 10:00:51;;;;;;;;;;;23.80;63.50;;;;;;5070414;28;19909;-30
2023/07/10 10:03:26;;;;;;;;;;;23.80;63.60;;;;;;5071955;28;19961;-32
2023/07/10 10:05:54;;;;;;;;;;;23.80;64.00;;;;;;5071888;28;19912;-33
2023/07/10 10:08:27;;;;;;;;;;;23.90;63.70;;;;;;5071643;28;19958;-34
2023/07/10 10:11:03;;;;;;;;;;;24.00;63.80;;;;;;5072053;28;19944;-36
2023/07/10 10:13:30;;;;;;;;;;;24.10;63.30;;;;;;5071594;28;20489;-32
2023/07/10 10:16:03;;;;;;;;;;;24.10;62.80;;;;;;5071763;28;20380;-34
2023/07/10 10:18:31;;;;;;;;;;;24.10;62.80;;;;;;5071880;28;19908;-44
2023/07/10 10:20:57;;;;;;;;;;;24.20;62.50;;;;;;5072710;28;19908;-35
2023/07/10 10:23:43;;;;;;;;;;;24.30;61.00;;;;;;5075542;28;20309;-31
2023/07/10 10:26:32;;;;;;;;;;;24.40;61.80;;;;;;5075114;28;19913;-36
2023/07/10 10:29:16;;;;;;;;;;;24.40;61.80;;;;;;5074139;28;19908;-35
2023/07/10 10:31:46;;;;;;;;;;;24.50;61.40;;;;;;5075355;28;19990;-33
2023/07/10 10:34:21;;;;;;;;;;;24.50;61.30;;;;;;5075722;28;19915;-31
2023/07/10 10:36:57;;;;;;;;;;;24.50;61.20;;;;;;5075408;28;19909;-33
2023/07/10 10:39:33;;;;;;;;;;;24.70;61.30;;;;;;5075334;28;20000;-34
2023/07/10 10:42:01;;;;;;;;;;;24.70;60.80;;;;;;5075194;28;19912;-32
2023/07/10 10:44:36;;;;;;;;;;;24.70;60.70;;;;;;5075274;28;20427;-33
2023/07/10 10:47:07;;;;;;;;;;;24.70;60.80;;;;;;5075521;28;20288;-33
2023/07/10 10:49:33;;;;;;;;;;;24.70;60.00;;;;;;5075034;28;19909;-34
2023/07/10 10:51:58;;;;;;;;;;;24.70;60.40;;;;;;5075004;28;19912;-35
2023/07/10 10:54:47;;;;;;;;;;;24.70;60.00;;;;;;5074894;28;20011;-36
2023/07/10 10:57:51;;;;;;;;;;;24.70;59.20;;;;;;5074920;28;19912;-38
2023/07/10 11:00:35;;;;;;;;;;;24.70;60.00;;;;;;5072559;28;19908;-30
2023/07/10 11:03:06;;;;;;;;;;;24.70;60.10;;;;;;5072349;28;19908;-31
2023/07/10 11:05:34;;;;;;;;;;;24.70;60.40;;;;;;5074058;28;19930;-30
2023/07/10 11:08:02;;;;;;;;;;;24.80;60.40;;;;;;5075054;28;19916;-31
2023/07/10 11:10:30;;;;;;;;;;;24.80;60.20;;;;;;5074843;28;20023;-36
2023/07/10 11:12:56;;;;;;;;;;;24.80;59.80;;;;;;5074789;28;20364;-31
2023/07/10 11:15:22;;;;;;;;;;;24.80;60.00;;;;;;5074626;28;19930;-35
2023/07/10 11:17:49;;;;;;;;;;;24.90;59.40;;;;;;5073266;28;19909;-32
2023/07/10 11:20:15;;;;;;;;;;;25.00;58.00;;;;;;5074792;28;20113;-31
2023/07/10 11:22:57;;;;;;;;;;;25.10;57.70;;;;;;5074410;28;20288;-37
2023/07/10 11:25:30;;;;;;;;;;;25.20;57.20;;;;;;5074370;28;19958;-34
2023/07/10 11:28:00;;;;;;;;;;;25.20;56.90;;;;;;5074710;28;19944;-32
2023/07/10 11:30:29;;;;;;;;;;;25.20;56.80;;;;;;5074291;28;19920;-31
2023/07/10 11:33:02;;;;;;;;;;;25.20;57.10;;;;;;5071892;28;20300;-36
2023/07/10 11:35:28;;;;;;;;;;;25.40;56.60;;;;;;5074137;28;19909;-36
2023/07/10 11:38:13;;;;;;;;;;;25.40;56.40;;;;;;5074141;28;19908;-37
2023/07/10 11:40:39;;;;;;;;;;;25.40;55.60;;;;;;5072882;28;19912;-33
2023/07/10 11:43:34;;;;;;;;;;;25.40;55.90;;;;;;5074112;28;19913;-36
2023/07/10 11:46:04;;;;;;;;;;;25.50;56.10;;;;;;5073290;28;19912;-35
2023/07/10 11:48:40;;;;;;;;;;;25.70;55.80;;;;;;5073953;28;19999;-43
2023/07/10 11:51:24;;;;;;;;;;;25.80;55.70;;;;;;5073709;28;19912;-37
2023/07/10 11:54:01;;;;;;;;;;;25.80;55.00;;;;;;5074105;28;19912;-32
2023/07/10 11:56:26;;;;;;;;;;;25.90;55.60;;;;;;5074033;28;19912;-48
2023/07/10 11:58:51;;;;;;;;;;;26.10;55.80;;;;;;5074224;28;19908;-38
2023/07/10 12:01:18;;;;;;;;;;;26.10;55.70;;;;;;5074344;28;19909;-34
2023/07/10 12:03:44;;;;;;;;;;;26.10;55.90;;;;;;5073906;28;20003;-31
2023/07/10 12:06:13;;;;;;;;;;;26.20;55.60;;;;;;5073657;28;20332;-29
2023/07/10 12:08:39;;;;;;;;;;;26.20;55.30;;;;;;5073777;28;19959;-36
2023/07/10 12:11:04;;;;;;;;;;;26.40;55.40;;;;;;5073585;28;19909;-34
2023/07/10 12:13:30;;;;;;;;;;;26.40;54.50;;;;;;5073460;28;20272;-32
2023/07/10 12:15:57;;;;;;;;;;;26.50;54.50;;;;;;5073854;28;19912;-32
2023/07/10 12:18:34;;;;;;;;;;;26.40;54.60;;;;;;5073435;28;19915;-34
2023/07/10 12:21:00;;;;;;;;;;;26.50;54.70;;;;;;5073801;28;20465;-35
2023/07/10 12:23:26;;;;;;;;;;;26.60;54.90;;;;;;5073651;28;20450;-34
2023/07/10 12:25:53;;;;;;;;;;;26.70;54.20;;;;;;5073605;28;19908;-33
2023/07/10 12:28:20;;;;;;;;;;;26.80;54.00;;;;;;5073489;28;20371;-34
2023/07/10 12:30:49;;;;;;;;;;;26.80;53.70;;;;;;5073110;28;20069;-32
2023/07/10 12:33:38;;;;;;;;;;;26.80;53.90;;;;;;5073039;28;20432;-34
2023/07/10 12:36:05;;;;;;;;;;;26.90;54.00;;;;;;5073079;28;19908;-32
2023/07/10 12:38:31;;;;;;;;;;;27.10;53.40;;;;;;5072916;28;19908;-31
2023/07/10 12:40:57;;;;;;;;;;;27.10;52.40;;;;;;5073029;28;19909;-37
2023/07/10 12:43:24;;;;;;;;;;;27.20;52.70;;;;;;5071592;28;19991;-31
2023/07/10 12:45:56;;;;;;;;;;;27.30;52.80;;;;;;5073271;28;19912;-35
2023/07/10 12:48:23;;;;;;;;;;;27.40;52.70;;;;;;5073209;28;20322;-35
2023/07/10 12:50:53;;;;;;;;;;;27.50;52.10;;;;;;5072831;28;19915;-33
2023/07/10 12:53:26;;;;;;;;;;;27.50;52.40;;;;;;5072789;28;19951;-32
2023/07/10 12:55:53;;;;;;;;;;;27.80;52.60;;;;;;5072991;28;20472;-36
2023/07/10 12:58:19;;;;;;;;;;;27.80;51.50;;;;;;5072941;28;20384;-34
2023/07/10 13:00:46;;;;;;;;;;;27.90;51.50;;;;;;5072908;28;20314;-34
2023/07/10 13:03:25;;;;;;;;;;;27.90;51.00;;;;;;5072559;28;19954;-35
2023/07/10 13:05:52;;;;;;;;;;;28.00;51.50;;;;;;5072669;28;19908;-33
2023/07/10 13:08:18;;;;;;;;;;;28.10;51.50;;;;;;5072515;28;19912;-33
2023/07/10 13:10:45;;;;;;;;;;;28.10;51.70;;;;;;5072835;28;19915;-35
2023/07/10 13:13:13;;;;;;;;;;;28.10;51.60;;;;;;5072200;28;19917;-34
2023/07/10 13:15:41;;;;;;;;;;;28.20;51.60;;;;;;5072361;28;19908;-33
2023/07/10 13:18:21;;;;;;;;;;;28.30;51.10;;;;;;5072349;28;19916;-31
2023/07/10 13:20:47;;;;;;;;;;;28.40;51.40;;;;;;5073541;28;20360;-34
2023/07/10 13:23:12;;;;;;;;;;;28.50;51.60;;;;;;5072354;28;19920;-32
2023/07/10 13:25:38;;;;;;;;;;;28.70;51.50;;;;;;5071209;28;20211;-33
2023/07/10 13:28:24;;;;;;;;;;;28.80;51.50;;;;;;5072672;28;19908;-31
2023/07/10 13:30:49;;;;;;;;;;;29.00;51.10;;;;;;5072202;28;20287;-35
2023/07/10 13:33:19;;;;;;;;;;;29.10;51.20;;;;;;5072639;28;20015;-33
2023/07/10 13:35:49;;;;;;;;;;;29.20;51.00;;;;;;5072577;28;19909;-34
2023/07/10 13:38:16;;;;;;;;;;;29.40;50.10;;;;;;5072426;28;20340;-31
2023/07/10 13:40:41;;;;;;;;;;;29.40;48.90;;;;;;5072639;28;19916;-35
2023/07/10 13:43:14;;;;;;;;;;;29.30;48.60;;;;;;5072284;28;19908;-36
2023/07/10 13:45:40;;;;;;;;;;;29.30;49.00;;;;;;5072475;28;19908;-35
2023/07/10 13:48:16;;;;;;;;;;;29.30;47.20;;;;;;5070870;28;20271;-38
2023/07/10 13:50:42;;;;;;;;;;;29.30;47.50;;;;;;5072349;28;19913;-32
2023/07/10 13:53:15;;;;;;;;;;;29.30;47.90;;;;;;5072080;28;19964;-32
2023/07/10 13:55:41;;;;;;;;;;;29.40;47.90;;;;;;5071847;28;19909;-37
2023/07/10 13:58:23;;;;;;;;;;;29.50;47.50;;;;;;5071337;28;20377;-36
2023/07/10 14:00:51;;;;;;;;;;;29.40;47.30;;;;;;5072114;28;19908;-30
2023/07/10 14:03:17;;;;;;;;;;;29.40;46.90;;;;;;5072142;28;19913;-31
2023/07/10 14:05:44;;;;;;;;;;;29.40;46.60;;;;;;5072047;28;19909;-31
2023/07/10 14:08:29;;;;;;;;;;;29.50;46.70;;;;;;5072115;28;20383;-30
2023/07/10 14:10:56;;;;;;;;;;;29.60;47.00;;;;;;5070792;28;19915;-33
2023/07/10 14:13:21;;;;;;;;;;;29.70;47.10;;;;;;5072001;28;19919;-36
2023/07/10 14:15:51;;;;;;;;;;;29.90;46.50;;;;;;5072008;28;20282;-37
2023/07/10 14:18:28;;;;;;;;;;;29.90;46.10;;;;;;5072454;28;20364;-32
2023/07/10 14:20:54;;;;;;;;;;;29.90;45.50;;;;;;5072192;28;19958;-33
2023/07/10 14:23:22;;;;;;;;;;;29.90;44.80;;;;;;5070378;28;19912;-33